createdAt,value
2022-11-28T00:01:35.549Z,100367.00
2022-11-28T00:04:06.166Z,100368.78
2022-11-28T00:06:45.906Z,100357.28
2022-11-28T00:09:15.565Z,100349.44
2022-11-28T00:11:46.297Z,100348.50
2022-11-28T00:14:18.212Z,100351.97
2022-11-28T00:16:46.783Z,100347.66
2022-11-28T00:19:14.857Z,100338.03
2022-11-28T00:21:44.110Z,100336.31
2022-11-28T00:24:12.034Z,100335.28
2022-11-28T00:26:42.250Z,100318.44
2022-11-28T00:29:11.855Z,100310.56
2022-11-28T00:31:44.758Z,100295.59
2022-11-28T00:34:15.516Z,100295.59
2022-11-28T00:36:46.590Z,100304.59
2022-11-28T00:39:16.170Z,100302.25
2022-11-28T00:41:45.307Z,100323.53
2022-11-28T00:44:13.798Z,100328.31
2022-11-28T00:46:43.482Z,100347.91
2022-11-28T00:49:11.655Z,100329.75
2022-11-28T00:51:39.973Z,100327.88
2022-11-28T00:54:08.386Z,100321.72
2022-11-28T00:56:40.037Z,100318.16
2022-11-28T00:59:08.102Z,100316.03
2022-11-28T01:01:42.364Z,100307.72
2022-11-28T01:04:14.736Z,100300.66
2022-11-28T01:06:49.123Z,100298.81
2022-11-28T01:09:21.345Z,100306.84
2022-11-28T01:11:52.290Z,100295.44
2022-11-28T01:14:24.240Z,100289.22
2022-11-28T01:16:52.231Z,100284.94
2022-11-28T01:19:20.286Z,100299.94
2022-11-28T01:21:48.738Z,100298.44
2022-11-28T01:24:17.506Z,100300.94
2022-11-28T01:26:46.030Z,100295.56
2022-11-28T01:29:14.912Z,100288.47
2022-11-28T01:31:42.938Z,100285.59
2022-11-28T01:34:10.794Z,100292.69
2022-11-28T01:36:42.938Z,100314.81
2022-11-28T01:39:13.181Z,100291.06
2022-11-28T01:41:41.497Z,100300.66
2022-11-28T01:44:32.181Z,100303.38
2022-11-28T01:47:00.235Z,100299.00
2022-11-28T01:49:37.878Z,100289.03
2022-11-28T01:52:13.230Z,100271.38
2022-11-28T01:54:46.518Z,100266.94
2022-11-28T01:57:20.900Z,100247.63
2022-11-28T02:00:19.498Z,100243.22
2022-11-28T02:03:00.734Z,100252.91
2022-11-28T02:05:28.749Z,100240.00
2022-11-28T02:07:57.406Z,100253.94
2022-11-28T02:10:43.627Z,100232.63
2022-11-28T02:13:23.493Z,100225.56
2022-11-28T02:16:01.654Z,100228.44
2022-11-28T02:19:15.261Z,100234.53
2022-11-28T02:22:16.167Z,100236.34
2022-11-28T02:25:14.540Z,100249.63
2022-11-28T02:28:19.637Z,100262.97
2022-11-28T02:31:53.702Z,100246.34
2022-11-28T02:34:34.975Z,100241.88
2022-11-28T02:37:16.780Z,100229.47
2022-11-28T02:40:26.389Z,100234.78
2022-11-28T02:43:09.011Z,100225.81
2022-11-28T02:46:14.895Z,100222.34
2022-11-28T02:49:11.738Z,100216.13
2022-11-28T02:52:14.261Z,100210.00
2022-11-28T02:54:44.520Z,100210.06
2022-11-28T02:57:12.376Z,100204.88
2022-11-28T02:59:43.450Z,100215.25
2022-11-28T03:02:17.204Z,100203.84
2022-11-28T03:05:43.537Z,100210.91
2022-11-28T03:08:35.769Z,100191.53
2022-11-28T03:11:28.474Z,100202.16
2022-11-28T03:14:05.309Z,100196.84
2022-11-28T03:17:02.024Z,100191.53
2022-11-28T03:19:44.114Z,100186.16
2022-11-28T03:22:38.602Z,100186.28
2022-11-28T03:25:12.301Z,100195.16
2022-11-28T03:27:52.038Z,100193.41
2022-11-28T03:31:07.323Z,100193.56
2022-11-28T03:33:40.927Z,100203.22
2022-11-28T03:36:59.727Z,100207.72
2022-11-28T03:39:37.832Z,100209.50
2022-11-28T03:42:41.397Z,100205.88
2022-11-28T03:45:24.096Z,100199.75
2022-11-28T03:48:08.807Z,100203.16
2022-11-28T03:50:45.513Z,100200.50
2022-11-28T03:54:02.691Z,100204.91
2022-11-28T03:56:45.715Z,100205.88
2022-11-28T03:59:38.771Z,100203.22
2022-11-28T04:02:25.049Z,100202.38
2022-11-28T04:05:18.961Z,100204.19
2022-11-28T04:08:07.370Z,100201.66
2022-11-28T04:10:55.297Z,100185.03
2022-11-28T04:14:16.981Z,100188.56
2022-11-28T04:16:58.356Z,100192.25
2022-11-28T04:19:37.183Z,100193.16
2022-11-28T04:22:14.113Z,100192.25
2022-11-28T04:25:11.413Z,100188.69
2022-11-28T04:27:47.913Z,100188.75
2022-11-28T04:30:17.515Z,100199.38
2022-11-28T04:32:56.570Z,100196.72
2022-11-28T04:35:51.416Z,100200.38
2022-11-28T04:38:21.136Z,100204.69
2022-11-28T04:41:00.713Z,100191.34
2022-11-28T04:43:35.499Z,100196.63
2022-11-28T04:46:19.739Z,100201.81
2022-11-28T04:48:47.705Z,100196.63
2022-11-28T04:51:43.814Z,100197.44
2022-11-28T04:55:05.884Z,100203.03
2022-11-28T04:57:45.652Z,100204.03
2022-11-28T05:00:21.151Z,100190.69
2022-11-28T05:02:53.538Z,100193.16
2022-11-28T05:05:25.989Z,100180.03
2022-11-28T05:07:54.377Z,100175.56
2022-11-28T05:10:22.905Z,100184.47
2022-11-28T05:12:51.078Z,100184.59
2022-11-28T05:15:20.246Z,100182.84
2022-11-28T05:17:49.952Z,100174.91
2022-11-28T05:20:18.764Z,100174.91
2022-11-28T05:22:46.643Z,100159.91
2022-11-28T05:25:14.626Z,100169.72
2022-11-28T05:27:42.714Z,100173.41
2022-11-28T05:30:12.195Z,100184.00
2022-11-28T05:32:41.528Z,100192.06
2022-11-28T05:35:11.395Z,100176.97
2022-11-28T05:37:39.784Z,100183.94
2022-11-28T05:40:09.425Z,100183.88
2022-11-28T05:42:37.259Z,100162.63
2022-11-28T05:45:05.946Z,100169.72
2022-11-28T05:47:37.600Z,100159.16
2022-11-28T05:50:06.383Z,100151.38
2022-11-28T05:52:34.273Z,100154.03
2022-11-28T05:55:02.472Z,100144.44
2022-11-28T05:57:32.535Z,100131.44
2022-11-28T06:00:00.882Z,100139.44
2022-11-28T06:02:29.069Z,100133.31
2022-11-28T06:04:57.217Z,100138.63
2022-11-28T06:07:25.409Z,100159.03
2022-11-28T06:09:53.255Z,100144.94
2022-11-28T06:12:21.675Z,100158.06
2022-11-28T06:14:49.790Z,100161.50
2022-11-28T06:17:18.213Z,100159.66
2022-11-28T06:19:46.377Z,100168.44
2022-11-28T06:22:14.094Z,100155.97
2022-11-28T06:24:42.076Z,100159.50
2022-11-28T06:27:10.250Z,100166.44
2022-11-28T06:29:40.882Z,100170.94
2022-11-28T06:32:10.496Z,100166.53
2022-11-28T06:34:38.807Z,100175.41
2022-11-28T06:37:06.541Z,100174.69
2022-11-28T06:39:34.522Z,100187.03
2022-11-28T06:42:02.870Z,100190.47
2022-11-28T06:44:30.697Z,100179.00
2022-11-28T06:46:58.497Z,100189.53
2022-11-28T06:49:26.677Z,100192.13
2022-11-28T06:51:54.466Z,100177.19
2022-11-28T06:54:22.275Z,100197.47
2022-11-28T06:56:50.540Z,100198.38
2022-11-28T06:59:18.636Z,100196.69
2022-11-28T07:01:47.301Z,100202.88
2022-11-28T07:04:15.860Z,100186.13
2022-11-28T07:06:44.854Z,100190.53
2022-11-28T07:09:14.396Z,100186.19
2022-11-28T07:11:42.977Z,100192.34
2022-11-28T07:14:13.101Z,100197.66
2022-11-28T07:16:40.824Z,100208.19
2022-11-28T07:19:11.244Z,100202.81
2022-11-28T07:21:40.104Z,100196.56
2022-11-28T07:24:08.834Z,100201.75
2022-11-28T07:26:38.325Z,100206.06
2022-11-28T07:29:07.679Z,100206.91
2022-11-28T07:31:37.008Z,100196.28
2022-11-28T07:34:04.845Z,100204.38
2022-11-28T07:36:33.390Z,100207.06
2022-11-28T07:39:05.851Z,100206.25
2022-11-28T07:41:33.942Z,100216.88
2022-11-28T07:44:04.345Z,100207.25
2022-11-28T07:46:34.411Z,100203.25
2022-11-28T07:49:02.747Z,100192.75
2022-11-28T07:51:35.480Z,100206.81
2022-11-28T07:54:08.989Z,100199.84
2022-11-28T07:57:10.898Z,100198.13
2022-11-28T07:59:27.042Z,100205.22
2022-11-28T08:01:55.347Z,100206.94
2022-11-28T08:04:23.381Z,100207.78
2022-11-28T08:06:51.366Z,100208.53
2022-11-28T08:09:21.340Z,100209.28
2022-11-28T08:11:51.291Z,100212.63
2022-11-28T08:14:20.085Z,100219.53
2022-11-28T08:16:49.589Z,100214.13
2022-11-28T08:19:19.479Z,100199.00
2022-11-28T08:21:49.798Z,100200.69
2022-11-28T08:24:20.653Z,100197.03
2022-11-28T08:26:49.154Z,100204.03
2022-11-28T08:29:17.304Z,100194.22
2022-11-28T08:31:48.419Z,100195.94
2022-11-28T08:34:16.824Z,100195.88
2022-11-28T08:36:45.333Z,100197.44
2022-11-28T08:39:29.022Z,100186.81
2022-11-28T08:41:58.947Z,100179.06
2022-11-28T08:44:30.313Z,100186.94
2022-11-28T08:46:59.145Z,100191.19
2022-11-28T08:49:27.242Z,100198.13
2022-11-28T08:51:55.393Z,100194.34
2022-11-28T08:54:23.499Z,100202.09
2022-11-28T08:56:52.447Z,100195.78
2022-11-28T08:59:20.642Z,100201.75
2022-11-28T09:01:48.841Z,100197.34
2022-11-28T09:04:17.208Z,100192.78
2022-11-28T09:06:45.350Z,100197.84
2022-11-28T09:09:14.015Z,100202.22
2022-11-28T09:11:42.525Z,100203.19
2022-11-28T09:14:11.667Z,100200.28
2022-11-28T09:16:41.973Z,100193.09
2022-11-28T09:19:10.901Z,100182.53
2022-11-28T09:21:39.334Z,100185.81
2022-11-28T09:24:08.893Z,100196.31
2022-11-28T09:26:37.090Z,100200.72
2022-11-28T09:29:05.453Z,100194.34
2022-11-28T09:31:34.161Z,100196.91
2022-11-28T09:34:04.166Z,100195.25
2022-11-28T09:36:33.325Z,100210.13
2022-11-28T09:39:02.668Z,100204.78
2022-11-28T09:41:54.354Z,100205.59
2022-11-28T09:44:37.361Z,100200.19
2022-11-28T09:47:23.338Z,100210.75
2022-11-28T09:49:59.837Z,100215.03
2022-11-28T09:52:55.416Z,100209.56
2022-11-28T09:55:50.195Z,100218.47
2022-11-28T09:58:37.374Z,100211.28
2022-11-28T10:01:32.934Z,100213.88
2022-11-28T10:04:59.469Z,100223.72
2022-11-28T10:08:07.644Z,100213.72
2022-11-28T10:10:54.407Z,100225.00
2022-11-28T10:14:08.287Z,100213.28
2022-11-28T10:17:14.693Z,100210.56
2022-11-28T10:20:17.267Z,100202.75
2022-11-28T10:23:13.593Z,100206.03
2022-11-28T10:26:27.266Z,100199.66
2022-11-28T10:28:58.336Z,100187.09
2022-11-28T10:31:38.853Z,100195.72
2022-11-28T10:34:48.134Z,100191.94
2022-11-28T10:37:29.751Z,100194.38
2022-11-28T10:40:40.340Z,100191.53
2022-11-28T10:43:55.312Z,100179.91
2022-11-28T10:47:02.410Z,100164.94
2022-11-28T10:50:34.371Z,100162.38
2022-11-28T10:53:35.564Z,100162.09
2022-11-28T10:56:11.722Z,100168.22
2022-11-28T10:58:45.843Z,100160.78
2022-11-28T11:01:15.428Z,100155.31
2022-11-28T11:03:44.807Z,100147.16
2022-11-28T11:06:13.281Z,100137.19
2022-11-28T11:08:42.025Z,100143.25
2022-11-28T11:11:25.506Z,100150.81
2022-11-28T11:14:06.072Z,100153.22
2022-11-28T11:16:54.008Z,100140.56
2022-11-28T11:19:38.903Z,100141.16
2022-11-28T11:22:15.935Z,100133.84
2022-11-28T11:24:44.171Z,100130.22
2022-11-28T11:27:22.455Z,100132.59
2022-11-28T11:29:55.556Z,100128.03
2022-11-28T11:32:30.543Z,100128.63
2022-11-28T11:34:59.960Z,100127.47
2022-11-28T11:37:39.169Z,100129.91
2022-11-28T11:40:29.808Z,100131.44
2022-11-28T11:43:03.714Z,100125.06
2022-11-28T11:45:35.475Z,100123.03
2022-11-28T11:48:05.213Z,100122.81
2022-11-28T11:50:33.575Z,100117.41
2022-11-28T11:53:14.555Z,100124.16
2022-11-28T11:55:53.392Z,100130.25
2022-11-28T11:58:34.293Z,100117.59
2022-11-28T12:01:04.024Z,100119.25
2022-11-28T12:03:48.809Z,100121.66
2022-11-28T12:06:25.352Z,100116.19
2022-11-28T12:09:29.545Z,100108.88
2022-11-28T12:12:16.174Z,100112.31
2022-11-28T12:14:44.722Z,100118.38
2022-11-28T12:17:57.205Z,100114.47
2022-11-28T12:21:01.246Z,100105.69
2022-11-28T12:23:55.649Z,100108.94
2022-11-28T12:26:47.980Z,100106.06
2022-11-28T12:29:42.841Z,100099.56
2022-11-28T12:32:28.358Z,100099.34
2022-11-28T12:35:30.622Z,100097.53
2022-11-28T12:38:28.794Z,100085.22
2022-11-28T12:41:15.536Z,100091.03
2022-11-28T12:44:40.523Z,100090.91
2022-11-28T12:48:04.552Z,100095.44
2022-11-28T12:50:55.559Z,100087.28
2022-11-28T12:54:00.866Z,100082.66
2022-11-28T12:56:38.470Z,100077.25
2022-11-28T12:59:34.258Z,100074.22
2022-11-28T13:02:57.221Z,100079.47
2022-11-28T13:06:01.489Z,100079.38
2022-11-28T13:09:02.416Z,100082.00
2022-11-28T13:12:06.483Z,100084.91
2022-11-28T13:15:03.566Z,100068.78
2022-11-28T13:17:50.281Z,100068.66
2022-11-28T13:20:42.241Z,100071.25
2022-11-28T13:24:10.712Z,100071.56
2022-11-28T13:27:03.732Z,100068.94
2022-11-28T13:30:12.582Z,100066.25
2022-11-28T13:33:08.285Z,100066.44
2022-11-28T13:35:37.902Z,100065.72
2022-11-28T13:39:11.239Z,100072.63
2022-11-28T13:45:23.873Z,100065.72
2022-11-28T13:47:58.498Z,100067.22
2022-11-28T13:50:36.390Z,100067.81
2022-11-28T13:53:24.980Z,100076.69
2022-11-28T13:56:13.416Z,100069.69
2022-11-28T13:59:03.747Z,100074.16
2022-11-28T14:02:04.858Z,100077.69
2022-11-28T14:04:35.886Z,100072.34
2022-11-28T14:07:08.751Z,100074.81
2022-11-28T14:10:24.527Z,100069.78
2022-11-28T14:13:34.568Z,100062.53
2022-11-28T14:16:36.954Z,100055.19
2022-11-28T14:19:24.240Z,100068.50
2022-11-28T14:22:14.694Z,100065.63
2022-11-28T14:24:58.006Z,100068.28
2022-11-28T14:27:38.646Z,100076.25
2022-11-28T14:30:36.288Z,100065.63
2022-11-28T14:33:25.009Z,100066.50
2022-11-28T14:35:54.025Z,100071.91
2022-11-28T14:38:34.900Z,100076.25
2022-11-28T14:41:13.346Z,100075.53
2022-11-28T14:43:47.487Z,100075.44
2022-11-28T14:46:17.441Z,100078.19
2022-11-28T14:49:19.134Z,100074.66
2022-11-28T14:51:53.620Z,100080.13
2022-11-28T14:54:47.977Z,100076.59
2022-11-28T14:57:22.878Z,100074.97
2022-11-28T14:59:53.226Z,100083.03
2022-11-28T15:02:33.609Z,100081.84
2022-11-28T15:05:31.634Z,100078.50
2022-11-28T15:08:33.581Z,100087.38
2022-11-28T15:11:28.993Z,100088.31
2022-11-28T15:14:16.628Z,100080.44
2022-11-28T15:16:52.490Z,100081.53
2022-11-28T15:19:49.348Z,100079.66
2022-11-28T15:22:43.609Z,100079.66
2022-11-28T15:25:28.078Z,100077.91
2022-11-28T15:28:12.224Z,100088.66
2022-11-28T15:30:50.868Z,100086.84
2022-11-28T15:33:21.083Z,100078.94
2022-11-28T15:36:15.290Z,100082.38
2022-11-28T15:38:44.532Z,100088.75
2022-11-28T15:41:13.174Z,100088.03
2022-11-28T15:43:48.836Z,100093.34
2022-11-28T15:46:33.165Z,100085.50
2022-11-28T15:49:02.143Z,100093.56
2022-11-28T15:51:37.121Z,100086.50
2022-11-28T15:54:41.385Z,100086.72
2022-11-28T15:57:27.113Z,100090.47
2022-11-28T15:59:57.513Z,100090.59
2022-11-28T16:02:39.862Z,100083.63
2022-11-28T16:05:22.012Z,100088.19
2022-11-28T16:07:52.195Z,100093.66
2022-11-28T16:10:35.361Z,100088.31
2022-11-28T16:13:17.095Z,100091.09
2022-11-28T16:15:57.856Z,100089.38
2022-11-28T16:18:29.249Z,100091.31
2022-11-28T16:20:59.520Z,100088.63
2022-11-28T16:23:37.989Z,100097.97
2022-11-28T16:26:27.722Z,100107.66
2022-11-28T16:29:02.469Z,100100.66
2022-11-28T16:31:30.888Z,100103.38
2022-11-28T16:34:01.306Z,100097.31
2022-11-28T16:36:49.679Z,100101.78
2022-11-28T16:39:18.526Z,100097.41
2022-11-28T16:42:11.771Z,100107.13
2022-11-28T16:44:41.729Z,100092.41
2022-11-28T16:47:30.169Z,100103.72
2022-11-28T16:50:20.690Z,100103.88
2022-11-28T16:52:50.783Z,100105.69
2022-11-28T16:55:30.947Z,100110.00
2022-11-28T16:58:13.021Z,100102.88
2022-11-28T17:00:48.512Z,100103.03
2022-11-28T17:03:49.676Z,100103.03
2022-11-28T17:06:26.484Z,100115.50
2022-11-28T17:09:07.686Z,100113.69
2022-11-28T17:11:39.871Z,100107.63
2022-11-28T17:14:13.710Z,100101.56
2022-11-28T17:16:43.811Z,100101.56
2022-11-28T17:19:12.962Z,100105.22
2022-11-28T17:21:51.387Z,100106.00
2022-11-28T17:24:33.533Z,100107.81
2022-11-28T17:27:03.124Z,100109.75
2022-11-28T17:29:33.536Z,100108.97
2022-11-28T17:32:03.276Z,100112.56
2022-11-28T17:34:35.129Z,100104.41
2022-11-28T17:37:05.169Z,100110.69
2022-11-28T17:39:34.624Z,100109.91
2022-11-28T17:42:06.078Z,100103.63
2022-11-28T17:44:38.025Z,100120.47
2022-11-28T17:47:07.227Z,100117.03
2022-11-28T17:49:36.130Z,100109.81
2022-11-28T17:52:05.964Z,100099.38
2022-11-28T17:54:35.259Z,100117.16
2022-11-28T17:57:04.147Z,100101.09
2022-11-28T17:59:34.448Z,100105.34
2022-11-28T18:02:04.852Z,100107.16
2022-11-28T18:04:38.204Z,100107.94
2022-11-28T18:07:07.005Z,100109.63
2022-11-28T18:09:38.702Z,100110.41
2022-11-28T18:12:07.695Z,100120.94
2022-11-28T18:14:39.803Z,100116.47
2022-11-28T18:17:09.477Z,100115.53
2022-11-28T18:19:39.652Z,100125.28
2022-11-28T18:22:08.861Z,100119.97
2022-11-28T18:24:38.073Z,100119.81
2022-11-28T18:27:07.611Z,100124.28
2022-11-28T18:29:36.884Z,100123.28
2022-11-28T18:32:06.997Z,100116.94
2022-11-28T18:34:35.828Z,100120.47
2022-11-28T18:37:06.259Z,100116.00
2022-11-28T18:39:35.706Z,100123.03
2022-11-28T18:42:06.868Z,100124.06
2022-11-28T18:44:36.665Z,100122.34
2022-11-28T18:47:06.546Z,100125.94
2022-11-28T18:49:36.786Z,100125.13
2022-11-28T18:52:05.767Z,100135.72
2022-11-28T18:54:34.750Z,100132.28
2022-11-28T18:57:07.252Z,100136.81
2022-11-28T18:59:35.815Z,100134.06
2022-11-28T19:02:06.137Z,100132.16
2022-11-28T19:04:34.899Z,100128.53
2022-11-28T19:07:04.391Z,100131.19
2022-11-28T19:09:34.257Z,100126.81
2022-11-28T19:12:05.577Z,100129.53
2022-11-28T19:14:35.437Z,100135.66
2022-11-28T19:17:09.440Z,100129.41
2022-11-28T19:19:45.256Z,100135.50
2022-11-28T19:22:17.294Z,100131.00
2022-11-28T19:24:45.969Z,100131.84
2022-11-28T19:27:15.424Z,100129.97
2022-11-28T19:29:45.395Z,100127.38
2022-11-28T19:32:15.120Z,100134.31
2022-11-28T19:34:43.947Z,100120.13
2022-11-28T19:37:16.570Z,100124.47
2022-11-28T19:39:47.403Z,100129.41
2022-11-28T19:42:16.683Z,100135.31
2022-11-28T19:44:46.386Z,100134.31
2022-11-28T19:47:16.951Z,100132.44
2022-11-28T19:49:46.756Z,100139.50
2022-11-28T19:52:15.938Z,100138.50
2022-11-28T19:54:44.555Z,100131.38
2022-11-28T19:57:14.619Z,100134.00
2022-11-28T19:59:43.470Z,100134.84
2022-11-28T20:02:12.517Z,100135.75
2022-11-28T20:04:43.407Z,100126.00
2022-11-28T20:07:12.127Z,100127.75
2022-11-28T20:09:40.675Z,100140.06
2022-11-28T20:12:10.017Z,100132.91
2022-11-28T20:14:39.056Z,100140.72
2022-11-28T20:17:07.530Z,100142.44
2022-11-28T20:19:35.670Z,100150.22
2022-11-28T20:22:04.785Z,100143.31
2022-11-28T20:24:33.986Z,100156.59
2022-11-28T20:27:02.886Z,100153.97
2022-11-28T20:29:31.168Z,100161.91
2022-11-28T20:31:59.572Z,100164.63
2022-11-28T20:34:28.891Z,100156.06
2022-11-28T20:36:59.428Z,100158.72
2022-11-28T20:39:27.849Z,100166.00
2022-11-28T20:41:56.397Z,100160.78
2022-11-28T20:44:25.433Z,100165.31
2022-11-28T20:46:54.332Z,100151.47
2022-11-28T20:49:23.134Z,100149.66
2022-11-28T20:51:51.514Z,100160.25
2022-11-28T20:54:20.459Z,100159.38
2022-11-28T20:57:19.618Z,100163.72
2022-11-28T20:59:38.592Z,100156.59
2022-11-28T21:02:07.255Z,100166.44
2022-11-28T21:04:36.627Z,100161.31
2022-11-28T21:07:05.816Z,100163.97
2022-11-28T21:09:35.395Z,100165.84
2022-11-28T21:12:03.842Z,100165.00
2022-11-28T21:14:31.957Z,100168.59
2022-11-28T21:17:01.862Z,100165.84
2022-11-28T21:19:30.489Z,100167.72
2022-11-28T21:21:59.107Z,100158.19
2022-11-28T21:24:27.422Z,100160.66
2022-11-28T21:26:56.349Z,100160.94
2022-11-28T21:29:25.170Z,100161.06
2022-11-28T21:31:54.719Z,100166.94
2022-11-28T21:34:23.474Z,100168.06
2022-11-28T21:36:52.668Z,100165.41
2022-11-28T21:39:22.208Z,100166.06
2022-11-28T21:41:51.178Z,100165.13
2022-11-28T21:44:19.797Z,100176.44
2022-11-28T21:46:49.145Z,100171.03
2022-11-28T21:49:17.662Z,100175.25
2022-11-28T21:51:45.901Z,100179.66
2022-11-28T21:54:14.386Z,100175.19
2022-11-28T21:56:45.133Z,100175.09
2022-11-28T21:59:13.355Z,100163.72
2022-11-28T22:01:42.059Z,100159.97
2022-11-28T22:04:12.042Z,100170.25
2022-11-28T22:06:40.655Z,100171.13
2022-11-28T22:09:09.992Z,100167.75
2022-11-28T22:11:40.306Z,100173.00
2022-11-28T22:14:09.268Z,100171.28
2022-11-28T22:16:38.158Z,100173.94
2022-11-28T22:19:06.723Z,100174.00
2022-11-28T22:21:55.784Z,100172.91
2022-11-28T22:24:24.329Z,100184.44
2022-11-28T22:26:56.520Z,100173.00
2022-11-28T22:29:25.376Z,100176.53
2022-11-28T22:31:54.961Z,100189.78
2022-11-28T22:34:24.354Z,100177.53
2022-11-28T22:36:52.574Z,100181.78
2022-11-28T22:39:21.841Z,100181.75
2022-11-28T22:41:50.943Z,100180.94
2022-11-28T22:44:21.701Z,100173.06
2022-11-28T22:46:50.440Z,100180.06
2022-11-28T22:49:19.728Z,100186.06
2022-11-28T22:51:48.503Z,100190.44
2022-11-28T22:54:17.158Z,100176.63
2022-11-28T22:56:45.567Z,100185.09
2022-11-28T22:59:15.557Z,100185.09
2022-11-28T23:01:44.021Z,100196.53
2022-11-28T23:04:12.787Z,100183.31
2022-11-28T23:06:40.814Z,100192.03
2022-11-28T23:09:12.301Z,100179.78
2022-11-28T23:11:41.132Z,100187.78
2022-11-28T23:14:15.293Z,100188.44
2022-11-28T23:16:45.398Z,100187.66
2022-11-28T23:19:17.959Z,100188.44
2022-11-28T23:21:50.087Z,100192.88
2022-11-28T23:24:23.031Z,100200.88
2022-11-28T23:26:52.715Z,100180.88
2022-11-28T23:29:21.249Z,100191.25
2022-11-28T23:31:50.846Z,100192.19
2022-11-28T23:34:19.806Z,100188.50
2022-11-28T23:36:49.268Z,100198.31
2022-11-28T23:39:23.312Z,100191.19
2022-11-28T23:41:52.485Z,100194.78
2022-11-28T23:44:21.197Z,100195.56
2022-11-28T23:46:49.351Z,100201.84
2022-11-28T23:49:17.967Z,100193.06
2022-11-28T23:51:46.126Z,100195.53
2022-11-28T23:54:14.253Z,100188.38
2022-11-28T23:56:42.719Z,100192.66
2022-11-28T23:59:11.957Z,100195.38
